Impacts METAR Board
IDs:

KSLC - Salt Lake City Intl, UT, US

Updated at: 1900 UTC 31 May 2023
Potential Impact None Slight Moderate High
Time 31/07Z 31/08Z 31/09Z 31/10Z 31/11Z 31/12Z 31/13Z 31/14Z 31/15Z 31/16Z 31/17Z 31/18Z 31/19Z
Temp67 63 64 62 60 58 61 65 69 71 75 77 81
Dewpt43 46 49 46 49 49 51 50 48 46 45 40 39
Altim29.84 29.84 29.84 29.84 29.84 29.84 29.84 29.84 29.85 29.84 29.83 29.80 29.78
VIS10 10 10 10 10 10 10 10 10 10 10 10 10
CIG-- -- -- 250 250 200 200 220 220 250 250 250 250
CoverFEWFEWSCTBKNBKNBKNBKNBKNBKNBKNBKNBKNBKN
FltCatVFRVFRVFRVFRVFRVFRVFRVFRVFRVFRVFRVFRVFR
WX--------------------------
WDir2003503402200260024026000320330
WSpd3 7 3 6 0 4 0 5 5 3 6 9 10
WGst-- -- -- -- -- -- -- -- -- -- -- -- --
Raw hourly METARs
KSLC 310654Z 20003KT 10SM FEW250 19/06 A2984 RMK AO2 SLP050 T01940061 403000144
KSLC 310754Z 35007KT 10SM FEW250 17/08 A2984 RMK AO2 SLP051 T01720078
KSLC 310854Z 34003KT 10SM FEW150 SCT250 18/09 A2984 RMK AO2 SLP052 T01780094 55001
KSLC 310954Z 22006KT 10SM FEW150 BKN250 17/08 A2984 RMK AO2 SLP052 T01670078
KSLC 311054Z 00000KT 10SM BKN250 16/09 A2984 RMK AO2 SLP052 T01560094
KSLC 311154Z 26004KT 10SM FEW150 BKN200 14/09 A2984 RMK AO2 SLP057 T01440094 10200 20144 53000
KSLC 311254Z 00000KT 10SM FEW150 BKN200 BKN250 16/11 A2984 RMK AO2 SLP054 T01610106
KSLC 311354Z 24005KT 10SM FEW120 BKN220 18/10 A2984 RMK AO2 SLP054 T01830100
KSLC 311454Z 26005KT 10SM FEW130 BKN220 21/09 A2985 RMK AO2 SLP055 T02060089 53001
KSLC 311554Z VRB03KT 10SM FEW130 SCT220 BKN250 22/08 A2984 RMK AO2 SLP056 VIRGA T02170078
KSLC 311654Z VRB06KT 10SM FEW080 FEW130 SCT220 BKN250 24/07 A2983 RMK AO2 SLP048 VIRGA T02390072
KSLC 311754Z 32009KT 10SM FEW085 FEW130 SCT200 BKN250 25/04 A2980 RMK AO2 SLP040 VIRGA TCU DSNT NE ACC DSNT SE T02500044 10261 20139 58013
KSLC 311854Z 33010KT 10SM FEW085CB FEW120 SCT200 BKN250 27/04 A2978 RMK AO2 SLP031 VIRGA CB NE-E MOV N AND DSNT SE AND NW TCU DSNT N T02720039



Page loaded:  19:49 UTC  |   12:49 PM Pacific  |   01:49 PM Mountain  |   02:49 PM Central  |   03:49 PM Eastern

 

ADVISORIES

FORECASTS

FORECASTS

OBSERVATIONS

USER TOOLS

ABOUT US